createdAt,value
2022-07-29T00:00:06.258Z,992.84
2022-07-29T00:01:05.827Z,992.80
2022-07-29T00:02:05.823Z,992.80
2022-07-29T00:03:06.283Z,992.77
2022-07-29T00:04:05.840Z,992.76
2022-07-29T00:05:05.805Z,992.74
2022-07-29T00:06:05.811Z,992.74
2022-07-29T00:07:06.019Z,992.77
2022-07-29T00:08:10.653Z,992.77
2022-07-29T00:09:05.775Z,992.76
2022-07-29T00:10:05.774Z,992.76
2022-07-29T00:11:05.785Z,992.72
2022-07-29T00:12:05.758Z,992.70
2022-07-29T00:13:05.785Z,992.69
2022-07-29T00:14:05.761Z,992.71
2022-07-29T00:15:05.748Z,992.73
2022-07-29T00:16:05.772Z,992.72
2022-07-29T00:17:05.727Z,992.69
2022-07-29T00:18:05.757Z,992.70
2022-07-29T00:19:05.724Z,992.64
2022-07-29T00:20:05.713Z,992.68
2022-07-29T00:21:05.725Z,992.63
2022-07-29T00:22:05.746Z,992.63
2022-07-29T00:23:05.713Z,992.63
2022-07-29T00:24:05.897Z,992.58
2022-07-29T00:25:05.708Z,992.61
2022-07-29T00:26:05.711Z,992.59
2022-07-29T00:27:05.686Z,992.59
2022-07-29T00:28:05.697Z,992.60
2022-07-29T00:29:33.184Z,992.57
2022-07-29T00:30:05.670Z,992.56
2022-07-29T00:31:05.765Z,992.54
2022-07-29T00:32:05.751Z,992.54
2022-07-29T00:33:09.000Z,992.54
2022-07-29T00:34:05.650Z,992.53
2022-07-29T00:35:05.642Z,992.51
2022-07-29T00:36:05.668Z,992.47
2022-07-29T00:37:05.668Z,992.47
2022-07-29T00:38:05.631Z,992.46
2022-07-29T00:39:05.628Z,992.50
2022-07-29T00:44:29.593Z,992.46
2022-07-29T00:45:29.604Z,992.43
2022-07-29T00:46:29.712Z,992.44
2022-07-29T00:47:29.551Z,992.46
2022-07-29T00:48:29.594Z,992.44
2022-07-29T00:49:29.635Z,992.44
2022-07-29T00:50:29.549Z,992.49
2022-07-29T00:51:29.558Z,992.45
2022-07-29T00:52:29.559Z,992.48
2022-07-29T00:53:29.559Z,992.50
2022-07-29T00:54:29.550Z,992.46
2022-07-29T00:55:29.544Z,992.44
2022-07-29T00:56:29.514Z,992.41
2022-07-29T00:57:29.532Z,992.44
2022-07-29T00:58:29.717Z,992.42
2022-07-29T00:59:35.228Z,992.41
2022-07-29T01:00:29.612Z,992.35
2022-07-29T01:01:29.601Z,992.40
2022-07-29T01:02:29.546Z,992.35
2022-07-29T01:03:29.526Z,992.33
2022-07-29T01:04:29.483Z,992.35
2022-07-29T01:05:49.860Z,992.33
2022-07-29T01:06:29.473Z,992.29
2022-07-29T01:07:29.452Z,992.32
2022-07-29T01:08:29.474Z,992.31
2022-07-29T01:09:35.016Z,992.34
2022-07-29T01:10:29.472Z,992.31
2022-07-29T01:11:29.443Z,992.31
2022-07-29T01:12:29.437Z,992.32
2022-07-29T01:13:29.447Z,992.32
2022-07-29T01:14:29.428Z,992.29
2022-07-29T01:15:29.445Z,992.23
2022-07-29T01:16:29.518Z,992.27
2022-07-29T01:17:29.423Z,992.25
2022-07-29T01:18:29.423Z,992.24
2022-07-29T01:19:30.613Z,992.26
2022-07-29T01:20:31.706Z,992.26
2022-07-29T01:21:29.399Z,992.27
2022-07-29T01:22:29.419Z,992.25
2022-07-29T01:23:29.418Z,992.27
2022-07-29T01:24:29.380Z,992.25
2022-07-29T01:25:29.391Z,992.28
2022-07-29T01:26:29.381Z,992.24
2022-07-29T01:27:29.380Z,992.20
2022-07-29T01:28:29.384Z,992.18
2022-07-29T01:29:31.008Z,992.16
2022-07-29T01:30:29.355Z,992.15
2022-07-29T01:31:29.390Z,992.14
2022-07-29T01:32:29.640Z,992.15
2022-07-29T01:33:29.331Z,992.12
2022-07-29T01:34:29.335Z,992.14
2022-07-29T01:35:29.362Z,992.13
2022-07-29T01:36:29.323Z,992.13
2022-07-29T01:37:29.321Z,992.07
2022-07-29T01:38:29.312Z,992.05
2022-07-29T01:39:29.298Z,992.00
2022-07-29T01:40:29.312Z,992.01
2022-07-29T01:41:29.340Z,992.00
2022-07-29T01:42:29.292Z,991.99
2022-07-29T01:43:29.282Z,991.98
2022-07-29T01:44:29.517Z,991.99
2022-07-29T01:45:29.453Z,992.00
2022-07-29T01:46:29.386Z,991.96
2022-07-29T01:47:29.654Z,991.98
2022-07-29T01:48:29.326Z,991.95
2022-07-29T01:49:29.679Z,991.90
2022-07-29T01:50:29.365Z,991.92
2022-07-29T01:51:29.507Z,991.89
2022-07-29T01:52:29.427Z,991.89
2022-07-29T01:53:29.309Z,991.87
2022-07-29T01:54:29.286Z,991.84
2022-07-29T01:55:29.430Z,991.79
2022-07-29T01:56:29.423Z,991.83
2022-07-29T01:57:29.333Z,991.86
2022-07-29T01:58:29.203Z,991.87
2022-07-29T01:59:29.549Z,991.89
2022-07-29T02:00:29.225Z,991.89
2022-07-29T02:01:29.245Z,991.92
2022-07-29T02:02:29.278Z,991.95
2022-07-29T02:05:59.925Z,991.88
2022-07-29T02:06:59.975Z,991.89
2022-07-29T02:07:59.873Z,991.89
2022-07-29T02:09:00.200Z,991.92
2022-07-29T02:48:25.726Z,991.89
2022-07-29T02:49:25.587Z,991.86
2022-07-29T02:50:25.358Z,991.84
2022-07-29T02:51:43.754Z,991.82
2022-07-29T02:52:25.571Z,991.83
2022-07-29T02:53:25.422Z,991.78
2022-07-29T02:54:25.396Z,991.76
2022-07-29T02:55:25.408Z,991.74
2022-07-29T02:56:25.319Z,991.73
2022-07-29T02:57:25.425Z,991.73
2022-07-29T02:58:25.304Z,991.70
2022-07-29T02:59:25.229Z,991.70
2022-07-29T03:00:25.262Z,991.69
2022-07-29T03:01:25.546Z,991.72
2022-07-29T03:02:25.792Z,991.71
2022-07-29T03:03:25.419Z,991.72
2022-07-29T03:04:25.501Z,991.75
2022-07-29T03:05:25.292Z,991.74
2022-07-29T03:06:28.527Z,991.73
2022-07-29T03:07:25.358Z,991.71
2022-07-29T03:08:25.206Z,991.76
2022-07-29T03:09:25.543Z,991.74
2022-07-29T03:10:25.468Z,991.75
2022-07-29T03:11:42.394Z,991.83
2022-07-29T03:12:25.328Z,991.80
2022-07-29T03:13:25.173Z,991.83
2022-07-29T03:14:25.135Z,991.82
2022-07-29T03:15:25.132Z,991.87
2022-07-29T03:16:25.295Z,991.84
2022-07-29T03:17:25.158Z,991.85
2022-07-29T03:18:25.107Z,991.87
2022-07-29T03:19:25.100Z,991.91
2022-07-29T03:20:25.084Z,991.87
2022-07-29T03:21:25.087Z,991.89
2022-07-29T03:22:25.290Z,991.88
2022-07-29T03:23:25.105Z,991.89
2022-07-29T03:24:25.079Z,991.89
2022-07-29T03:25:25.082Z,991.92
2022-07-29T03:26:25.069Z,991.90
2022-07-29T03:27:25.044Z,991.90
2022-07-29T03:28:26.934Z,991.87
2022-07-29T03:29:25.035Z,991.86
2022-07-29T03:30:25.027Z,991.90
2022-07-29T03:31:25.079Z,991.89
2022-07-29T03:32:25.302Z,991.87
2022-07-29T03:33:25.033Z,991.88
2022-07-29T03:34:25.020Z,991.85
2022-07-29T03:35:25.009Z,991.84
2022-07-29T03:36:25.000Z,991.86
2022-07-29T03:37:24.998Z,991.85
2022-07-29T03:38:24.992Z,991.83
2022-07-29T03:39:24.982Z,991.81
2022-07-29T03:40:24.988Z,991.86
2022-07-29T03:41:24.974Z,991.86
2022-07-29T03:51:58.738Z,991.91
2022-07-29T03:52:58.951Z,991.93
2022-07-29T03:53:58.721Z,991.94
2022-07-29T03:54:58.708Z,991.93
2022-07-29T03:55:58.710Z,991.94
2022-07-29T03:56:58.697Z,991.92
2022-07-29T03:57:58.729Z,991.92
2022-07-29T03:58:58.672Z,991.91
2022-07-29T03:59:58.710Z,991.91
2022-07-29T04:00:58.697Z,991.90
2022-07-29T04:01:58.759Z,991.93
2022-07-29T04:02:58.794Z,991.98
2022-07-29T04:03:58.786Z,991.96
2022-07-29T04:04:58.660Z,992.01
2022-07-29T04:05:58.645Z,992.04
2022-07-29T04:06:58.651Z,992.02
2022-07-29T04:07:58.669Z,992.05
2022-07-29T04:08:58.644Z,992.06
2022-07-29T04:09:58.621Z,992.06
2022-07-29T04:10:58.605Z,992.02
2022-07-29T04:12:02.454Z,992.03
2022-07-29T04:12:58.611Z,992.02
2022-07-29T04:13:58.608Z,992.03
2022-07-29T04:14:58.592Z,992.02
2022-07-29T04:15:58.676Z,992.03
2022-07-29T04:16:58.595Z,992.04
2022-07-29T04:17:58.580Z,992.03
2022-07-29T04:18:58.572Z,992.05
2022-07-29T04:19:58.555Z,992.07
2022-07-29T04:20:58.568Z,992.07
2022-07-29T04:21:58.574Z,992.05
2022-07-29T04:22:58.563Z,992.04
2022-07-29T04:23:58.550Z,992.05
2022-07-29T04:25:03.336Z,992.03
2022-07-29T04:25:58.523Z,991.99
2022-07-29T04:26:58.522Z,992.00
2022-07-29T04:27:58.594Z,992.00
2022-07-29T04:28:58.554Z,991.99
2022-07-29T04:29:58.509Z,992.02
2022-07-29T04:30:58.562Z,992.02
2022-07-29T04:31:58.488Z,991.97
2022-07-29T04:32:58.490Z,992.02
2022-07-29T04:33:58.502Z,991.99
2022-07-29T04:34:58.468Z,992.03
2022-07-29T04:35:58.476Z,992.03
2022-07-29T04:36:58.499Z,992.06
2022-07-29T04:37:58.490Z,992.01
2022-07-29T04:38:58.464Z,992.02
2022-07-29T04:39:58.442Z,991.98
2022-07-29T04:40:58.707Z,991.95
2022-07-29T04:41:58.458Z,991.96
2022-07-29T04:42:58.420Z,991.97
2022-07-29T04:43:58.417Z,991.96
2022-07-29T04:44:58.415Z,991.96
2022-07-29T04:45:58.436Z,991.95
2022-07-29T04:46:58.405Z,991.96
2022-07-29T04:47:58.402Z,991.95
2022-07-29T04:48:58.489Z,992.02
2022-07-29T04:49:58.383Z,991.96
2022-07-29T04:50:58.388Z,992.00
2022-07-29T04:51:58.379Z,991.97
2022-07-29T04:52:58.366Z,991.93
2022-07-29T04:53:58.372Z,991.88
2022-07-29T04:54:58.361Z,991.88
2022-07-29T04:55:58.381Z,991.88
2022-07-29T04:56:58.656Z,991.89
2022-07-29T04:57:58.340Z,991.88
2022-07-29T04:58:58.334Z,991.90
2022-07-29T04:59:58.320Z,991.89
2022-07-29T05:00:58.539Z,991.94
2022-07-29T05:01:58.445Z,991.95
2022-07-29T05:02:58.387Z,991.94
2022-07-29T05:04:00.449Z,991.96
2022-07-29T05:04:58.290Z,991.93
2022-07-29T05:05:58.323Z,991.93
2022-07-29T05:06:58.310Z,991.92
2022-07-29T05:07:58.320Z,991.93
2022-07-29T05:08:58.303Z,991.93
2022-07-29T05:09:58.300Z,991.92
2022-07-29T05:10:58.286Z,991.90
2022-07-29T05:11:58.289Z,991.96
2022-07-29T05:12:58.251Z,991.94
2022-07-29T05:13:58.268Z,991.93
2022-07-29T05:15:00.849Z,991.89
2022-07-29T05:15:58.294Z,991.93
2022-07-29T05:16:58.217Z,991.93
2022-07-29T05:17:58.241Z,991.96
2022-07-29T05:18:58.210Z,991.92
2022-07-29T05:19:58.247Z,991.94
2022-07-29T05:20:58.232Z,991.94
2022-07-29T05:21:58.214Z,991.93
2022-07-29T05:22:58.203Z,992.00
2022-07-29T05:23:58.232Z,992.00
2022-07-29T05:24:58.181Z,991.94
2022-07-29T05:25:58.211Z,991.99
2022-07-29T05:26:58.222Z,992.00
2022-07-29T05:27:58.166Z,991.97
2022-07-29T05:28:58.156Z,991.99
2022-07-29T05:29:58.164Z,991.99
2022-07-29T05:30:58.223Z,991.95
2022-07-29T05:31:58.199Z,991.95
2022-07-29T05:32:58.141Z,992.00
2022-07-29T05:33:58.145Z,991.96
2022-07-29T05:34:58.154Z,991.99
2022-07-29T05:36:00.591Z,991.95
2022-07-29T05:36:58.115Z,991.98
2022-07-29T05:37:58.125Z,991.96
2022-07-29T05:38:58.116Z,991.95
2022-07-29T05:39:59.132Z,991.93
2022-07-29T05:40:58.148Z,991.97
2022-07-29T05:41:58.098Z,991.99
2022-07-29T05:42:58.303Z,991.98
2022-07-29T05:43:58.091Z,991.98
2022-07-29T05:44:58.069Z,991.95
2022-07-29T05:45:58.203Z,991.97
2022-07-29T05:46:58.267Z,991.98
2022-07-29T05:47:58.062Z,991.97
2022-07-29T05:48:58.206Z,991.98
2022-07-29T05:49:58.042Z,991.97
2022-07-29T05:50:58.089Z,991.97
2022-07-29T05:51:58.039Z,991.95
2022-07-29T05:52:58.044Z,991.92
2022-07-29T05:53:58.264Z,991.95
2022-07-29T05:54:58.056Z,991.95
2022-07-29T05:55:58.020Z,991.98
2022-07-29T05:56:58.024Z,991.97
2022-07-29T05:57:58.012Z,991.97
2022-07-29T05:58:57.995Z,991.93
2022-07-29T05:59:57.987Z,991.96
2022-07-29T06:00:58.156Z,991.94
2022-07-29T06:01:58.299Z,991.93
2022-07-29T06:02:58.200Z,991.95
2022-07-29T06:03:58.020Z,991.97
2022-07-29T06:04:58.020Z,992.00
2022-07-29T06:05:57.964Z,992.01
2022-07-29T06:06:57.969Z,992.01
2022-07-29T06:07:58.004Z,992.00
2022-07-29T06:08:57.960Z,992.01
2022-07-29T06:09:57.946Z,992.04
2022-07-29T06:10:57.962Z,992.05
2022-07-29T06:11:57.929Z,992.06
2022-07-29T06:12:57.976Z,992.06
2022-07-29T06:13:57.937Z,992.07
2022-07-29T06:14:57.930Z,992.07
2022-07-29T06:15:58.019Z,992.07
2022-07-29T06:16:57.900Z,992.10
2022-07-29T06:17:59.371Z,992.10
2022-07-29T06:18:57.901Z,992.12
2022-07-29T06:19:57.891Z,992.10
2022-07-29T06:20:57.890Z,992.09
2022-07-29T06:21:57.880Z,992.11
2022-07-29T06:22:57.883Z,992.07
2022-07-29T06:23:57.883Z,992.11
2022-07-29T06:24:57.865Z,992.11
2022-07-29T06:25:57.890Z,992.13
2022-07-29T06:26:58.068Z,992.14
2022-07-29T06:27:57.895Z,992.16
2022-07-29T06:28:57.851Z,992.16
2022-07-29T06:29:57.848Z,992.17
2022-07-29T06:30:57.932Z,992.14
2022-07-29T06:31:57.850Z,992.12
2022-07-29T06:32:57.826Z,992.11
2022-07-29T06:33:57.836Z,992.11
2022-07-29T06:35:24.448Z,992.08
2022-07-29T06:35:57.807Z,992.11
2022-07-29T06:36:57.811Z,992.10
2022-07-29T06:37:59.588Z,992.09
2022-07-29T06:38:57.807Z,992.13
2022-07-29T06:39:59.595Z,992.12
2022-07-29T06:40:57.793Z,992.15
2022-07-29T06:41:57.904Z,992.12
2022-07-29T06:42:57.792Z,992.13
2022-07-29T06:43:57.891Z,992.17
2022-07-29T06:44:58.183Z,992.12
2022-07-29T06:45:57.887Z,992.16
2022-07-29T06:46:57.970Z,992.15
2022-07-29T06:47:58.004Z,992.15
2022-07-29T06:48:57.938Z,992.16
2022-07-29T06:49:57.865Z,992.14
2022-07-29T06:50:57.761Z,992.14
2022-07-29T06:52:57.996Z,992.11
2022-07-29T06:54:03.005Z,992.11
2022-07-29T06:54:58.090Z,992.11
2022-07-29T06:55:57.928Z,992.11
2022-07-29T06:56:57.785Z,992.12
2022-07-29T06:57:57.737Z,992.12
2022-07-29T06:58:57.759Z,992.12
2022-07-29T06:59:57.715Z,992.14
2022-07-29T07:00:57.970Z,992.14
2022-07-29T07:01:57.811Z,992.10
2022-07-29T07:02:57.790Z,992.15
2022-07-29T07:03:57.712Z,992.15
2022-07-29T07:04:57.699Z,992.11
2022-07-29T07:05:57.690Z,992.12
2022-07-29T07:06:58.112Z,992.10
2022-07-29T07:07:58.121Z,992.10
2022-07-29T07:08:57.707Z,992.11
2022-07-29T07:09:57.722Z,992.09
2022-07-29T07:10:57.843Z,992.08
2022-07-29T07:11:57.798Z,992.09
2022-07-29T07:12:57.681Z,992.11
2022-07-29T07:14:02.588Z,992.09
2022-07-29T07:14:57.652Z,992.10
2022-07-29T07:15:57.653Z,992.05
2022-07-29T07:16:57.741Z,992.05
2022-07-29T07:17:57.897Z,992.07
2022-07-29T07:18:57.856Z,992.07
2022-07-29T07:19:57.637Z,992.07
2022-07-29T07:20:57.624Z,992.07
2022-07-29T07:21:58.261Z,992.06
2022-07-29T07:22:57.621Z,992.10
2022-07-29T07:23:57.635Z,992.08
2022-07-29T07:24:57.628Z,992.04
2022-07-29T07:25:57.646Z,992.08
2022-07-29T07:26:57.610Z,992.06
2022-07-29T07:27:57.603Z,992.06
2022-07-29T07:28:57.613Z,992.03
2022-07-29T07:29:57.602Z,992.06
2022-07-29T07:30:57.815Z,992.01
2022-07-29T07:32:00.882Z,992.02
2022-07-29T07:32:57.596Z,992.03
2022-07-29T07:33:57.631Z,992.00
2022-07-29T07:34:57.623Z,992.02
2022-07-29T07:35:57.595Z,992.02
2022-07-29T07:36:57.576Z,992.00
2022-07-29T07:37:57.587Z,992.01
2022-07-29T07:38:57.579Z,991.96
2022-07-29T07:39:57.577Z,991.96
2022-07-29T07:40:57.572Z,991.98
2022-07-29T07:41:57.766Z,991.92
2022-07-29T07:42:57.583Z,991.95
2022-07-29T07:43:57.588Z,991.95
2022-07-29T07:45:13.140Z,991.95
2022-07-29T07:45:57.614Z,991.93
2022-07-29T07:46:57.566Z,991.96
2022-07-29T07:47:57.579Z,991.96
2022-07-29T07:48:57.631Z,991.92
2022-07-29T07:49:57.538Z,991.92
2022-07-29T07:50:57.555Z,991.87
2022-07-29T07:51:57.557Z,991.92
2022-07-29T07:52:57.546Z,991.87
2022-07-29T07:53:57.721Z,991.93
2022-07-29T07:54:57.531Z,991.88
2022-07-29T07:56:10.583Z,991.90
2022-07-29T07:56:57.544Z,991.89
2022-07-29T07:57:57.527Z,991.89
2022-07-29T07:58:57.728Z,991.85
2022-07-29T07:59:57.739Z,991.85
2022-07-29T08:00:58.013Z,991.89
2022-07-29T08:01:58.848Z,991.93
2022-07-29T08:02:57.689Z,991.91
2022-07-29T08:03:57.842Z,991.89
2022-07-29T08:04:57.829Z,991.85
2022-07-29T08:06:57.809Z,991.87
2022-07-29T08:07:58.096Z,991.87
2022-07-29T08:09:19.548Z,991.82
2022-07-29T08:09:57.783Z,991.81
2022-07-29T08:10:57.515Z,991.85
2022-07-29T08:11:57.645Z,991.87
2022-07-29T08:12:57.760Z,991.88
2022-07-29T08:13:57.801Z,991.86
2022-07-29T08:14:57.777Z,991.87
2022-07-29T08:15:58.923Z,991.89
2022-07-29T08:16:57.760Z,991.88
2022-07-29T08:17:57.753Z,991.86
2022-07-29T08:18:57.771Z,991.88
2022-07-29T08:19:58.207Z,991.88
2022-07-29T08:20:57.799Z,991.91
2022-07-29T08:21:57.559Z,991.91
2022-07-29T08:22:57.454Z,991.95
2022-07-29T08:24:01.764Z,991.87
2022-07-29T08:24:57.479Z,991.91
2022-07-29T08:25:57.459Z,991.89
2022-07-29T08:26:57.461Z,991.90
2022-07-29T08:27:57.456Z,991.89
2022-07-29T08:28:57.453Z,991.88
2022-07-29T08:29:57.502Z,991.91
2022-07-29T08:30:57.456Z,991.88
2022-07-29T08:31:57.486Z,991.90
2022-07-29T08:32:57.492Z,991.89
2022-07-29T08:33:57.513Z,991.92
2022-07-29T08:34:57.431Z,991.90
2022-07-29T08:35:57.441Z,991.98
2022-07-29T08:36:57.440Z,991.92
2022-07-29T08:37:57.434Z,991.90
2022-07-29T08:38:57.420Z,991.89
2022-07-29T08:39:57.431Z,991.90
2022-07-29T08:40:57.437Z,991.89
2022-07-29T08:41:57.812Z,991.89
2022-07-29T08:42:57.449Z,991.87
2022-07-29T08:43:57.439Z,991.86
2022-07-29T08:44:57.431Z,991.83
2022-07-29T08:45:57.464Z,991.85
2022-07-29T08:46:57.432Z,991.85
2022-07-29T08:47:57.407Z,991.83
2022-07-29T08:48:57.516Z,991.79
2022-07-29T08:49:57.415Z,991.81
2022-07-29T08:50:57.562Z,991.77
2022-07-29T08:51:57.740Z,991.79
2022-07-29T08:52:59.839Z,991.81
2022-07-29T08:53:57.649Z,991.77
2022-07-29T08:54:57.407Z,991.80
2022-07-29T08:55:57.398Z,991.81
2022-07-29T08:56:57.453Z,991.78
2022-07-29T08:57:57.608Z,991.81
2022-07-29T08:58:57.422Z,991.85
2022-07-29T08:59:57.657Z,991.80
2022-07-29T09:00:58.177Z,991.79
2022-07-29T09:01:57.799Z,991.79
2022-07-29T09:02:57.399Z,991.81
2022-07-29T09:03:57.430Z,991.77
2022-07-29T09:04:57.562Z,991.74
2022-07-29T09:05:57.409Z,991.77
2022-07-29T09:06:57.548Z,991.78
2022-07-29T09:07:57.532Z,991.76
2022-07-29T09:08:57.586Z,991.75
2022-07-29T09:09:57.381Z,991.73
2022-07-29T09:10:57.388Z,991.73
2022-07-29T09:11:57.922Z,991.74
2022-07-29T09:12:57.383Z,991.72
2022-07-29T09:13:57.411Z,991.72
2022-07-29T09:14:57.392Z,991.69
2022-07-29T09:15:57.686Z,991.70
2022-07-29T09:16:57.662Z,991.72
2022-07-29T09:17:57.387Z,991.69
2022-07-29T09:18:57.382Z,991.69
2022-07-29T09:19:57.383Z,991.68
2022-07-29T09:20:57.373Z,991.69
2022-07-29T09:21:57.521Z,991.67
2022-07-29T09:22:57.980Z,991.64
2022-07-29T09:23:57.377Z,991.70
2022-07-29T09:24:57.755Z,991.68
2022-07-29T09:25:57.461Z,991.63
2022-07-29T09:26:57.592Z,991.59
2022-07-29T09:27:58.139Z,991.60
2022-07-29T09:28:57.859Z,991.58
2022-07-29T09:29:58.400Z,991.59
2022-07-29T09:30:57.617Z,991.59
2022-07-29T09:31:57.704Z,991.60
2022-07-29T09:32:57.639Z,991.57
2022-07-29T09:33:57.617Z,991.58
2022-07-29T09:34:58.524Z,991.61
2022-07-29T09:35:57.809Z,991.56
2022-07-29T09:36:58.319Z,991.59
2022-07-29T09:37:57.647Z,991.61
2022-07-29T09:38:57.827Z,991.55
2022-07-29T09:39:57.899Z,991.53
2022-07-29T09:40:57.672Z,991.56
2022-07-29T09:41:57.746Z,991.50
2022-07-29T09:42:57.451Z,991.50
2022-07-29T09:43:57.367Z,991.49
2022-07-29T09:44:57.359Z,991.52
2022-07-29T09:45:57.426Z,991.54
2022-07-29T09:46:58.052Z,991.49
2022-07-29T09:47:57.367Z,991.56
2022-07-29T09:48:58.092Z,991.46
2022-07-29T09:49:57.562Z,991.48
2022-07-29T09:50:57.389Z,991.51
2022-07-29T09:51:57.368Z,991.46
2022-07-29T09:52:57.393Z,991.43
2022-07-29T09:53:57.371Z,991.42
2022-07-29T09:54:57.363Z,991.43
2022-07-29T09:55:57.381Z,991.44
2022-07-29T09:56:57.753Z,991.44
2022-07-29T09:57:57.364Z,991.43
2022-07-29T09:58:57.378Z,991.45
2022-07-29T09:59:57.374Z,991.45
2022-07-29T10:00:57.416Z,991.40
2022-07-29T10:01:57.777Z,991.39
2022-07-29T10:02:57.385Z,991.39
2022-07-29T10:03:57.373Z,991.37
2022-07-29T10:04:57.403Z,991.32
2022-07-29T10:05:57.362Z,991.35
2022-07-29T10:07:03.952Z,991.33
2022-07-29T10:07:57.702Z,991.34
2022-07-29T10:08:57.563Z,991.33
2022-07-29T10:09:57.371Z,991.31
2022-07-29T10:10:57.366Z,991.31
2022-07-29T10:11:57.568Z,991.30
2022-07-29T10:12:57.378Z,991.31
2022-07-29T10:13:57.376Z,991.27
2022-07-29T10:14:57.383Z,991.23
2022-07-29T10:15:57.416Z,991.24
2022-07-29T10:16:57.374Z,991.24
2022-07-29T10:17:57.374Z,991.26
2022-07-29T10:18:57.400Z,991.28
2022-07-29T10:20:00.217Z,991.26
2022-07-29T10:20:57.382Z,991.25
2022-07-29T10:21:58.228Z,991.24
2022-07-29T10:22:57.369Z,991.25
2022-07-29T10:24:01.118Z,991.23
2022-07-29T10:24:57.364Z,991.21
2022-07-29T10:25:57.573Z,991.22
2022-07-29T10:26:57.386Z,991.25
2022-07-29T10:27:57.390Z,991.28
2022-07-29T10:28:57.384Z,991.26
2022-07-29T10:29:57.373Z,991.26
2022-07-29T10:30:57.675Z,991.24
2022-07-29T10:31:57.665Z,991.19
2022-07-29T10:32:57.388Z,991.20
2022-07-29T10:33:57.384Z,991.22
2022-07-29T10:34:57.620Z,991.21
2022-07-29T10:35:57.417Z,991.22
2022-07-29T10:36:57.653Z,991.19
2022-07-29T10:37:57.364Z,991.16
2022-07-29T10:38:57.385Z,991.19
2022-07-29T10:39:57.584Z,991.13
2022-07-29T10:40:57.450Z,991.13
2022-07-29T10:41:57.792Z,991.07
2022-07-29T10:42:57.382Z,991.06
2022-07-29T10:43:57.378Z,991.07
2022-07-29T10:44:57.370Z,991.09
2022-07-29T10:45:57.407Z,991.00
2022-07-29T10:46:57.446Z,991.01
2022-07-29T10:47:57.382Z,991.00
2022-07-29T10:48:57.425Z,991.01
2022-07-29T10:49:57.372Z,990.98
2022-07-29T10:50:57.415Z,990.96
2022-07-29T10:51:58.057Z,990.97
2022-07-29T10:52:57.368Z,990.97
2022-07-29T10:53:57.369Z,991.01
2022-07-29T10:54:57.376Z,990.99
2022-07-29T10:55:57.363Z,991.03
2022-07-29T10:56:57.733Z,990.98
2022-07-29T10:57:57.617Z,990.98
2022-07-29T10:58:57.436Z,990.97
2022-07-29T10:59:57.363Z,990.95
2022-07-29T11:00:57.590Z,990.94
2022-07-29T11:02:27.826Z,990.95
2022-07-29T11:02:57.567Z,990.93
2022-07-29T11:03:57.381Z,990.91
2022-07-29T11:04:57.365Z,990.88
2022-07-29T11:05:59.948Z,990.89
2022-07-29T11:06:57.366Z,990.90
2022-07-29T11:07:57.562Z,990.92
2022-07-29T11:08:57.392Z,990.88
2022-07-29T11:09:57.380Z,990.87
2022-07-29T11:10:57.454Z,990.87
2022-07-29T11:11:57.699Z,990.88
2022-07-29T11:13:41.420Z,990.80
2022-07-29T11:14:39.786Z,990.90
2022-07-29T11:15:39.780Z,990.82
2022-07-29T11:16:39.773Z,990.82
2022-07-29T11:17:51.909Z,990.82
2022-07-29T11:18:39.820Z,990.84
2022-07-29T11:19:40.385Z,990.80
2022-07-29T11:20:39.782Z,990.84
2022-07-29T11:21:55.365Z,990.77
2022-07-29T11:22:43.052Z,990.81
2022-07-29T11:23:39.777Z,990.80
2022-07-29T11:24:50.255Z,990.80
2022-07-29T11:26:39.810Z,990.78
2022-07-29T11:27:39.918Z,990.78
2022-07-29T11:28:39.777Z,990.78
2022-07-29T11:29:39.846Z,990.76
2022-07-29T11:30:42.410Z,990.74
2022-07-29T11:32:29.460Z,990.72
2022-07-29T11:34:27.974Z,990.78
2022-07-29T11:35:37.371Z,990.76
2022-07-29T11:36:28.299Z,990.72
2022-07-29T11:38:27.675Z,990.77
2022-07-29T11:39:27.173Z,990.78
2022-07-29T11:40:27.177Z,990.75
2022-07-29T11:41:27.362Z,990.75
2022-07-29T11:42:32.380Z,990.77
2022-07-29T11:43:27.181Z,990.81
2022-07-29T11:46:27.199Z,990.81
2022-07-29T11:47:27.363Z,990.83
2022-07-29T11:48:29.785Z,990.80
2022-07-29T11:50:27.269Z,990.76
2022-07-29T11:51:32.694Z,990.78
2022-07-29T11:52:27.170Z,990.72
2022-07-29T11:53:29.241Z,990.73
2022-07-29T11:54:27.415Z,990.68
2022-07-29T11:55:32.264Z,990.69
2022-07-29T11:56:27.189Z,990.72
2022-07-29T11:57:36.605Z,990.66
2022-07-29T11:58:27.370Z,990.64
2022-07-29T11:59:33.476Z,990.67
2022-07-29T12:00:27.184Z,990.65
2022-07-29T12:01:27.171Z,990.64
2022-07-29T12:02:37.567Z,990.68
2022-07-29T12:03:33.545Z,990.73
2022-07-29T12:04:27.181Z,990.68
2022-07-29T12:05:36.922Z,990.69
2022-07-29T12:06:27.165Z,990.68
2022-07-29T12:07:01.291Z,990.83
2022-07-29T12:07:02.109Z,990.82
2022-07-29T12:07:34.841Z,990.70
2022-07-29T12:08:27.167Z,990.68
2022-07-29T12:09:27.174Z,990.66
2022-07-29T12:10:30.407Z,990.64
2022-07-29T12:11:27.169Z,990.60
2022-07-29T12:12:27.159Z,990.63
2022-07-29T12:13:37.470Z,990.64
2022-07-29T12:14:27.177Z,990.61
2022-07-29T12:15:31.496Z,990.65
2022-07-29T12:16:29.551Z,990.61
2022-07-29T12:17:27.161Z,990.60
2022-07-29T12:18:27.167Z,990.61
2022-07-29T12:19:27.179Z,990.57
2022-07-29T12:20:27.182Z,990.55
2022-07-29T12:21:29.135Z,990.55
2022-07-29T12:22:27.178Z,990.54
2022-07-29T12:23:29.520Z,990.55
2022-07-29T12:24:27.545Z,990.51
2022-07-29T12:25:34.627Z,990.54
2022-07-29T12:26:27.160Z,990.58
2022-07-29T12:27:29.475Z,990.56
2022-07-29T12:28:27.487Z,990.55
2022-07-29T12:29:33.784Z,990.55
2022-07-29T12:30:27.153Z,990.58
2022-07-29T12:31:43.988Z,990.53
2022-07-29T12:32:27.205Z,990.55
2022-07-29T12:33:27.159Z,990.53
2022-07-29T12:34:27.360Z,990.50
2022-07-29T12:35:27.142Z,990.53
2022-07-29T12:36:27.158Z,990.50
2022-07-29T12:37:35.759Z,990.51
2022-07-29T12:38:27.149Z,990.48
2022-07-29T12:39:31.308Z,990.47
2022-07-29T12:40:27.158Z,990.46
2022-07-29T12:41:27.303Z,990.49
2022-07-29T12:42:27.173Z,990.48
2022-07-29T12:43:27.159Z,990.50
2022-07-29T12:44:27.349Z,990.51
2022-07-29T12:45:27.147Z,990.48
2022-07-29T12:46:27.226Z,990.52
2022-07-29T12:47:27.150Z,990.48
2022-07-29T12:48:27.348Z,990.45
2022-07-29T12:49:27.285Z,990.45
2022-07-29T12:50:27.154Z,990.42
2022-07-29T12:51:27.137Z,990.43
2022-07-29T12:52:27.146Z,990.44
2022-07-29T12:53:27.131Z,990.42
2022-07-29T12:54:27.137Z,990.42
2022-07-29T12:55:27.152Z,990.39
2022-07-29T12:56:42.381Z,990.39
2022-07-29T12:57:27.551Z,990.40
2022-07-29T12:58:27.139Z,990.39
2022-07-29T12:59:27.129Z,990.41
2022-07-29T13:00:27.229Z,990.39
2022-07-29T13:01:27.327Z,990.36
2022-07-29T13:02:27.180Z,990.38
2022-07-29T13:03:27.136Z,990.31
2022-07-29T13:04:27.322Z,990.31
2022-07-29T13:05:27.144Z,990.32
2022-07-29T13:06:27.138Z,990.28
2022-07-29T13:07:54.051Z,990.27
2022-07-29T13:08:27.131Z,990.25
2022-07-29T13:09:27.122Z,990.26
2022-07-29T13:10:27.124Z,990.26
2022-07-29T13:11:27.341Z,990.31
2022-07-29T13:12:27.145Z,990.28
2022-07-29T13:13:27.131Z,990.33
2022-07-29T13:14:27.122Z,990.35
2022-07-29T13:15:27.155Z,990.34
2022-07-29T13:16:27.142Z,990.30
2022-07-29T13:17:27.112Z,990.33
2022-07-29T13:18:27.141Z,990.37
2022-07-29T13:19:27.155Z,990.37
2022-07-29T13:20:27.130Z,990.34
2022-07-29T13:21:27.110Z,990.33
2022-07-29T13:22:27.108Z,990.35
2022-07-29T13:23:27.130Z,990.37
2022-07-29T13:24:27.102Z,990.37
2022-07-29T13:26:19.527Z,990.35
2022-07-29T13:27:19.520Z,990.36
2022-07-29T13:28:19.530Z,990.34
2022-07-29T13:29:19.514Z,990.36
2022-07-29T13:30:19.513Z,990.36
2022-07-29T13:31:19.504Z,990.32